createdAt,value
2023-02-15T00:01:09.594Z,60.03
2023-02-15T00:03:38.310Z,91.53
2023-02-15T00:06:07.404Z,116.37
2023-02-15T00:08:35.765Z,92.40
2023-02-15T00:11:08.411Z,93.60
2023-02-15T00:13:39.420Z,85.43
2023-02-15T00:16:11.320Z,72.03
2023-02-15T00:18:40.038Z,78.00
2023-02-15T00:21:10.222Z,70.47
2023-02-15T00:23:38.754Z,79.20
2023-02-15T00:26:08.757Z,67.70
2023-02-15T00:28:36.992Z,100.07
2023-02-15T00:31:07.507Z,107.83
2023-02-15T00:33:39.391Z,69.97
2023-02-15T00:36:09.928Z,77.97
2023-02-15T00:38:38.661Z,92.00
2023-02-15T00:41:08.635Z,99.60
2023-02-15T00:43:38.047Z,67.93
2023-02-15T00:46:07.230Z,97.17
2023-02-15T00:48:35.553Z,78.53
2023-02-15T00:51:05.271Z,58.07
2023-02-15T00:53:33.642Z,146.57
2023-02-15T00:56:02.472Z,112.30
2023-02-15T00:58:31.091Z,104.33
2023-02-15T01:01:05.495Z,211.17
2023-02-15T01:03:34.427Z,68.73
2023-02-15T01:06:06.135Z,82.07
2023-02-15T01:08:34.458Z,73.70
2023-02-15T01:11:06.368Z,69.23
2023-02-15T01:13:34.860Z,108.00
2023-02-15T01:16:03.932Z,62.37
2023-02-15T01:18:32.420Z,60.20
2023-02-15T01:21:00.775Z,70.90
2023-02-15T01:23:30.414Z,69.87
2023-02-15T01:26:03.327Z,61.93
2023-02-15T01:28:31.908Z,38.67
2023-02-15T01:31:00.438Z,42.23
2023-02-15T01:33:28.788Z,72.83
2023-02-15T01:36:00.921Z,136.63
2023-02-15T01:38:30.636Z,74.07
2023-02-15T01:41:19.742Z,88.50
2023-02-15T01:43:50.271Z,61.53
2023-02-15T01:46:24.715Z,59.57
2023-02-15T01:48:57.024Z,49.27
2023-02-15T01:51:29.738Z,86.67
2023-02-15T01:54:04.584Z,79.97
2023-02-15T01:56:36.820Z,95.47
2023-02-15T01:59:10.237Z,57.70
2023-02-15T02:01:40.033Z,80.73
2023-02-15T02:04:15.483Z,60.67
2023-02-15T02:06:43.769Z,53.27
2023-02-15T02:09:13.720Z,55.00
2023-02-15T02:11:46.595Z,68.93
2023-02-15T02:14:15.150Z,83.43
2023-02-15T02:16:52.399Z,85.23
2023-02-15T02:19:46.306Z,121.87
2023-02-15T02:22:42.442Z,163.73
2023-02-15T02:25:50.613Z,89.73
2023-02-15T02:28:39.451Z,113.63
2023-02-15T02:31:33.520Z,56.60
2023-02-15T02:34:12.677Z,63.03
2023-02-15T02:36:47.127Z,57.17
2023-02-15T02:39:25.692Z,65.77
2023-02-15T02:42:04.197Z,60.10
2023-02-15T02:44:43.976Z,94.60
2023-02-15T02:47:15.686Z,83.63
2023-02-15T02:49:45.861Z,58.47
2023-02-15T02:52:37.222Z,68.23
2023-02-15T02:55:08.708Z,56.80
2023-02-15T02:57:43.118Z,97.93
2023-02-15T03:00:13.298Z,96.03
2023-02-15T03:02:46.898Z,61.97
2023-02-15T03:05:21.036Z,69.27
2023-02-15T03:07:52.643Z,54.80
2023-02-15T03:10:24.049Z,62.27
2023-02-15T03:12:53.994Z,90.67
2023-02-15T03:15:25.236Z,97.80
2023-02-15T03:17:57.737Z,78.17
2023-02-15T03:20:32.576Z,99.30
2023-02-15T03:23:05.825Z,126.20
2023-02-15T03:25:38.298Z,120.93
2023-02-15T03:28:10.738Z,111.77
2023-02-15T03:30:41.484Z,89.70
2023-02-15T03:33:11.021Z,61.70
2023-02-15T03:35:47.662Z,127.20
2023-02-15T03:38:22.488Z,107.43
2023-02-15T03:41:09.662Z,49.90
2023-02-15T03:43:50.153Z,71.90
2023-02-15T03:46:23.637Z,120.00
2023-02-15T03:48:55.669Z,78.93
2023-02-15T03:51:35.937Z,94.60
2023-02-15T03:54:06.959Z,85.77
2023-02-15T03:56:37.594Z,57.30
2023-02-15T03:59:24.076Z,79.93
2023-02-15T04:02:06.989Z,70.03
2023-02-15T04:04:37.876Z,56.27
2023-02-15T04:07:09.327Z,62.37
2023-02-15T04:09:55.494Z,51.23
2023-02-15T04:12:23.757Z,65.47
2023-02-15T04:15:09.374Z,71.23
2023-02-15T04:17:38.270Z,49.73
2023-02-15T04:20:25.389Z,67.20
2023-02-15T04:23:12.488Z,136.43
2023-02-15T04:25:40.829Z,81.27
2023-02-15T04:28:09.432Z,69.80
2023-02-15T04:30:37.748Z,138.77
2023-02-15T04:33:06.175Z,114.20
2023-02-15T04:35:34.576Z,55.73
2023-02-15T04:38:04.271Z,62.10
2023-02-15T04:40:32.562Z,59.80
2023-02-15T04:43:00.735Z,55.13
2023-02-15T04:45:29.069Z,55.20
2023-02-15T04:47:57.522Z,68.20
2023-02-15T04:50:26.013Z,82.00
2023-02-15T04:52:54.258Z,59.40
2023-02-15T04:55:23.823Z,52.07
2023-02-15T04:57:52.128Z,58.90
2023-02-15T05:00:20.872Z,58.30
2023-02-15T05:02:48.975Z,61.13
2023-02-15T05:05:17.271Z,62.90
2023-02-15T05:07:45.442Z,53.23
2023-02-15T05:10:13.918Z,65.27
2023-02-15T05:12:43.444Z,68.70
2023-02-15T05:15:12.110Z,59.77
2023-02-15T05:17:40.429Z,48.53
2023-02-15T05:20:09.425Z,94.37
2023-02-15T05:22:37.606Z,92.47
2023-02-15T05:25:23.224Z,72.47
2023-02-15T05:28:10.360Z,73.53
2023-02-15T05:30:40.802Z,59.00
2023-02-15T05:33:09.504Z,42.80
2023-02-15T05:35:37.762Z,70.93
2023-02-15T05:38:05.985Z,64.03
2023-02-15T05:40:34.330Z,95.87
2023-02-15T05:43:03.940Z,92.37
2023-02-15T05:45:32.374Z,57.80
2023-02-15T05:48:00.532Z,49.63
2023-02-15T05:50:29.084Z,47.57
2023-02-15T05:53:00.153Z,54.60
2023-02-15T05:55:28.465Z,55.73
2023-02-15T05:57:56.624Z,93.50
2023-02-15T06:00:26.329Z,73.37
2023-02-15T06:02:54.483Z,75.90
2023-02-15T06:05:22.674Z,52.67
2023-02-15T06:07:50.824Z,54.33
2023-02-15T06:10:19.141Z,92.80
2023-02-15T06:12:47.277Z,74.27
2023-02-15T06:15:15.964Z,74.57
2023-02-15T06:17:45.861Z,47.47
2023-02-15T06:20:14.853Z,42.27
2023-02-15T06:22:42.989Z,50.43
2023-02-15T06:25:12.256Z,48.53
2023-02-15T06:27:43.686Z,64.50
2023-02-15T06:30:13.889Z,56.50
2023-02-15T06:32:42.380Z,46.90
2023-02-15T06:35:12.547Z,44.30
2023-02-15T06:37:41.169Z,104.57
2023-02-15T06:40:10.650Z,118.93
2023-02-15T06:42:38.869Z,66.83
2023-02-15T06:45:08.464Z,142.87
2023-02-15T06:47:36.780Z,115.23
2023-02-15T06:50:05.518Z,81.30
2023-02-15T06:52:35.140Z,54.53
2023-02-15T06:55:03.721Z,50.63
2023-02-15T06:57:33.314Z,124.20
2023-02-15T07:00:02.180Z,121.13
2023-02-15T07:02:30.732Z,96.70
2023-02-15T07:04:59.081Z,71.47
2023-02-15T07:07:27.530Z,74.47
2023-02-15T07:09:57.062Z,76.80
2023-02-15T07:12:44.851Z,72.00
2023-02-15T07:15:14.656Z,54.33
2023-02-15T07:17:42.964Z,128.30
2023-02-15T07:20:13.669Z,116.17
2023-02-15T07:22:41.783Z,76.40
2023-02-15T07:25:12.988Z,38.37
2023-02-15T07:27:41.792Z,41.90
2023-02-15T07:30:12.105Z,52.00
2023-02-15T07:33:00.630Z,48.87
2023-02-15T07:35:29.332Z,50.27
2023-02-15T07:37:57.761Z,44.77
2023-02-15T07:40:27.278Z,42.93
2023-02-15T07:42:55.896Z,35.80
2023-02-15T07:45:24.599Z,27.97
2023-02-15T07:47:52.807Z,49.27
2023-02-15T07:50:21.000Z,84.70
2023-02-15T07:52:49.271Z,59.87
2023-02-15T07:55:17.510Z,60.53
2023-02-15T07:57:49.525Z,33.27
2023-02-15T08:00:21.147Z,41.00
2023-02-15T08:03:10.501Z,33.93
2023-02-15T08:05:39.523Z,37.40
2023-02-15T08:08:08.100Z,40.77
2023-02-15T08:11:03.514Z,32.60
2023-02-15T08:13:33.150Z,49.50
2023-02-15T08:16:01.962Z,32.37
2023-02-15T08:18:30.473Z,80.37
2023-02-15T08:20:58.890Z,54.67
2023-02-15T08:23:27.342Z,81.20
2023-02-15T08:25:55.620Z,60.67
2023-02-15T08:28:23.775Z,62.20
2023-02-15T08:30:53.734Z,45.43
2023-02-15T08:33:22.254Z,59.27
2023-02-15T08:35:50.653Z,67.37
2023-02-15T08:38:19.128Z,70.63
2023-02-15T08:40:47.415Z,51.63
2023-02-15T08:43:15.750Z,40.67
2023-02-15T08:45:44.177Z,39.80
2023-02-15T08:48:13.932Z,29.13
2023-02-15T08:50:42.269Z,29.97
2023-02-15T08:53:10.577Z,48.67
2023-02-15T08:55:40.840Z,29.73
2023-02-15T08:58:09.169Z,27.37
2023-02-15T09:00:37.467Z,24.33
2023-02-15T09:03:06.253Z,21.63
2023-02-15T09:05:35.925Z,22.90
2023-02-15T09:08:04.309Z,23.23
2023-02-15T09:10:32.426Z,22.50
2023-02-15T09:13:00.600Z,22.67
2023-02-15T09:15:28.828Z,22.93
2023-02-15T09:17:57.092Z,27.77
2023-02-15T09:20:25.490Z,23.23
2023-02-15T09:22:57.655Z,30.20
2023-02-15T09:25:29.341Z,25.83
2023-02-15T09:27:58.399Z,26.93
2023-02-15T09:30:27.446Z,47.90
2023-02-15T09:32:56.614Z,25.10
2023-02-15T09:35:25.463Z,25.03
2023-02-15T09:37:55.618Z,26.17
2023-02-15T09:40:25.630Z,24.60
2023-02-15T09:43:19.189Z,22.90
2023-02-15T09:46:10.617Z,30.20
2023-02-15T09:48:43.780Z,22.93
2023-02-15T09:51:33.534Z,21.93
2023-02-15T09:54:18.759Z,30.10
2023-02-15T09:56:52.407Z,24.60
2023-02-15T09:59:30.372Z,24.33
2023-02-15T10:02:10.251Z,45.53
2023-02-15T10:04:53.156Z,26.13
2023-02-15T10:07:38.206Z,48.33
2023-02-15T10:10:19.789Z,50.67
2023-02-15T10:13:10.748Z,43.00
2023-02-15T10:15:53.079Z,42.80
2023-02-15T10:18:34.288Z,51.07
2023-02-15T10:21:11.109Z,44.43
2023-02-15T10:23:55.578Z,32.03
2023-02-15T10:26:30.542Z,28.10
2023-02-15T10:29:04.785Z,30.53
2023-02-15T10:31:40.019Z,30.07
2023-02-15T10:34:19.712Z,30.83
2023-02-15T10:37:25.157Z,25.13
2023-02-15T10:40:03.711Z,23.10
2023-02-15T10:42:52.088Z,24.23
2023-02-15T10:45:28.594Z,26.50
2023-02-15T10:48:24.257Z,26.80
2023-02-15T10:50:54.974Z,24.60
2023-02-15T10:53:47.088Z,23.67
2023-02-15T10:56:22.322Z,23.33
2023-02-15T10:59:08.358Z,22.27
2023-02-15T11:01:43.120Z,20.00
2023-02-15T11:04:41.036Z,22.80
2023-02-15T11:07:18.736Z,21.20
2023-02-15T11:09:50.777Z,21.37
2023-02-15T11:12:23.178Z,21.17
2023-02-15T11:15:00.659Z,20.33
2023-02-15T11:17:35.669Z,20.40
2023-02-15T11:20:11.797Z,21.60
2023-02-15T11:22:41.188Z,22.87
2023-02-15T11:25:20.419Z,21.90
2023-02-15T11:27:51.420Z,22.83
2023-02-15T11:30:27.267Z,24.43
2023-02-15T11:32:58.477Z,25.97
2023-02-15T11:35:31.589Z,25.73
2023-02-15T11:38:08.230Z,23.80
2023-02-15T11:40:43.361Z,22.43
2023-02-15T11:43:18.912Z,25.00
2023-02-15T11:45:48.674Z,24.50
2023-02-15T11:48:18.885Z,23.67
2023-02-15T11:50:47.570Z,25.07
2023-02-15T11:53:18.200Z,23.53
2023-02-15T11:55:47.937Z,24.23
2023-02-15T11:58:29.161Z,25.20
2023-02-15T12:01:04.992Z,25.13
2023-02-15T12:03:45.816Z,28.23
2023-02-15T12:06:27.351Z,24.87
2023-02-15T12:09:03.314Z,25.27
2023-02-15T12:11:39.159Z,25.27
2023-02-15T12:14:09.323Z,26.23
2023-02-15T12:16:46.770Z,26.43
2023-02-15T12:19:33.299Z,25.48
2023-02-15T12:22:04.329Z,26.77
2023-02-15T12:24:36.920Z,24.17
2023-02-15T12:27:08.037Z,27.27
2023-02-15T12:29:44.119Z,30.00
2023-02-15T12:32:20.974Z,24.67
2023-02-15T12:34:51.345Z,29.27
2023-02-15T12:37:23.608Z,37.20
2023-02-15T12:39:57.944Z,28.47
2023-02-15T12:42:27.743Z,31.00
2023-02-15T12:44:59.471Z,27.43
2023-02-15T12:47:31.089Z,25.10
2023-02-15T12:50:18.811Z,28.60
2023-02-15T12:52:49.651Z,30.67
2023-02-15T12:55:24.970Z,26.33
2023-02-15T12:58:11.032Z,27.80
2023-02-15T13:00:39.632Z,27.67
2023-02-15T13:03:20.252Z,27.40
2023-02-15T13:05:52.606Z,27.17
2023-02-15T13:08:23.009Z,25.00
2023-02-15T13:10:58.447Z,27.57
2023-02-15T13:13:29.864Z,27.20
2023-02-15T13:16:03.000Z,27.03
2023-02-15T13:18:36.367Z,40.27
2023-02-15T13:21:13.073Z,26.87
2023-02-15T13:23:46.817Z,26.57
2023-02-15T13:26:19.818Z,27.07
2023-02-15T13:28:50.587Z,26.10
2023-02-15T13:31:21.307Z,29.67
2023-02-15T13:33:54.514Z,27.03
2023-02-15T13:36:29.307Z,27.27
2023-02-15T13:39:09.357Z,26.67
2023-02-15T13:41:50.987Z,27.63
2023-02-15T13:44:31.606Z,29.27
2023-02-15T13:47:12.616Z,27.03
2023-02-15T13:49:53.043Z,27.93
2023-02-15T13:52:23.748Z,26.90
2023-02-15T13:55:08.733Z,29.07
2023-02-15T13:57:51.252Z,27.73
2023-02-15T14:00:28.196Z,26.90
2023-02-15T14:03:14.246Z,76.47
2023-02-15T14:05:59.301Z,32.37
2023-02-15T14:08:40.475Z,57.97
2023-02-15T14:11:18.020Z,27.60
2023-02-15T14:14:12.983Z,26.40
2023-02-15T14:17:04.550Z,27.37
2023-02-15T14:19:42.313Z,27.50
2023-02-15T14:22:22.797Z,54.73
2023-02-15T14:25:04.588Z,101.70
2023-02-15T14:27:45.546Z,37.37
2023-02-15T14:30:20.462Z,28.77
2023-02-15T14:32:51.626Z,41.37
2023-02-15T14:35:22.612Z,44.47
2023-02-15T14:37:57.458Z,31.77
2023-02-15T14:40:53.201Z,32.67
2023-02-15T14:43:32.519Z,31.00
2023-02-15T14:46:09.839Z,25.30
2023-02-15T14:48:43.632Z,28.60
2023-02-15T14:51:12.541Z,29.13
2023-02-15T14:53:43.201Z,28.50
2023-02-15T14:56:23.942Z,28.83
2023-02-15T14:59:02.467Z,29.57
2023-02-15T15:01:33.524Z,29.93
2023-02-15T15:04:06.531Z,35.93
2023-02-15T15:06:37.338Z,31.53
2023-02-15T15:09:14.399Z,31.07
2023-02-15T15:11:46.595Z,30.90
2023-02-15T15:14:39.777Z,29.93
2023-02-15T15:17:11.736Z,30.60
2023-02-15T15:20:32.802Z,29.60
2023-02-15T15:23:41.575Z,30.83
2023-02-15T15:26:26.560Z,33.77
2023-02-15T15:29:02.499Z,35.93
2023-02-15T15:31:41.499Z,30.97
2023-02-15T15:34:35.128Z,31.23
2023-02-15T15:37:27.744Z,29.93
2023-02-15T15:40:24.751Z,30.23
2023-02-15T15:43:14.053Z,32.40
2023-02-15T15:46:09.856Z,31.87
2023-02-15T15:48:40.007Z,32.83
2023-02-15T15:51:14.798Z,32.63
2023-02-15T15:53:49.425Z,34.67
2023-02-15T15:56:20.764Z,33.70
2023-02-15T15:58:54.456Z,33.73
2023-02-15T16:01:29.507Z,35.80
2023-02-15T16:03:59.929Z,37.03
2023-02-15T16:06:33.159Z,32.50
2023-02-15T16:09:18.391Z,33.47
2023-02-15T16:11:48.766Z,38.10
2023-02-15T16:14:24.157Z,38.50
2023-02-15T16:16:55.883Z,37.30
2023-02-15T16:19:28.599Z,36.20
2023-02-15T16:21:59.832Z,39.90
2023-02-15T16:24:44.516Z,39.73
2023-02-15T16:27:22.900Z,36.73
2023-02-15T16:29:53.255Z,38.27
2023-02-15T16:32:24.226Z,43.50
2023-02-15T16:34:57.664Z,42.43
2023-02-15T16:37:28.348Z,45.60
2023-02-15T16:39:57.451Z,41.17
2023-02-15T16:42:26.544Z,42.50
2023-02-15T16:44:59.165Z,42.17
2023-02-15T16:47:30.608Z,45.33
2023-02-15T16:50:03.107Z,49.97
2023-02-15T16:52:31.847Z,46.97
2023-02-15T16:55:02.298Z,47.67
2023-02-15T16:57:34.842Z,48.73
2023-02-15T17:00:07.456Z,50.40
2023-02-15T17:02:54.998Z,52.53
2023-02-15T17:05:24.655Z,57.67
2023-02-15T17:08:06.791Z,55.77
2023-02-15T17:10:37.746Z,52.57
2023-02-15T17:13:12.942Z,60.30
2023-02-15T17:15:44.341Z,58.93
2023-02-15T17:18:18.894Z,56.90
2023-02-15T17:20:48.789Z,59.33
2023-02-15T17:23:30.865Z,63.27
2023-02-15T17:26:00.112Z,57.63
2023-02-15T17:28:32.273Z,56.97
2023-02-15T17:31:08.133Z,57.00
2023-02-15T17:33:40.480Z,59.00
2023-02-15T17:36:14.779Z,62.17
2023-02-15T17:39:03.390Z,63.73
2023-02-15T17:41:33.731Z,63.77
2023-02-15T17:44:03.781Z,58.33
2023-02-15T17:46:36.588Z,60.10
2023-02-15T17:49:05.529Z,100.60
2023-02-15T17:51:36.560Z,180.15
2023-02-15T17:54:33.812Z,388.37
2023-02-15T17:57:05.862Z,499.43
2023-02-15T17:59:34.176Z,296.77
2023-02-15T18:02:30.667Z,249.47
2023-02-15T18:05:17.641Z,290.10
2023-02-15T18:08:04.843Z,378.20
2023-02-15T18:10:50.851Z,616.03
2023-02-15T18:13:19.073Z,484.50
2023-02-15T18:15:47.639Z,336.27
2023-02-15T18:18:17.414Z,565.67
2023-02-15T18:20:45.652Z,210.40
2023-02-15T18:23:16.051Z,261.70
2023-02-15T18:25:44.288Z,397.97
2023-02-15T18:28:14.286Z,466.17
2023-02-15T18:30:43.922Z,125.67
2023-02-15T18:33:27.073Z,277.50
2023-02-15T18:35:55.671Z,440.67
2023-02-15T18:38:24.048Z,341.37
2023-02-15T18:40:52.438Z,158.80
2023-02-15T18:43:21.052Z,629.23
2023-02-15T18:45:50.608Z,534.63
2023-02-15T18:48:21.469Z,461.60
2023-02-15T18:50:50.403Z,483.17
2023-02-15T18:53:21.437Z,553.07
2023-02-15T18:55:50.086Z,396.57
2023-02-15T18:58:20.671Z,379.80
2023-02-15T19:00:50.114Z,408.97
2023-02-15T19:03:20.905Z,390.87
2023-02-15T19:05:49.626Z,345.20
2023-02-15T19:08:22.040Z,430.30
2023-02-15T19:10:50.503Z,392.77
2023-02-15T19:13:19.059Z,428.87
2023-02-15T19:15:48.146Z,390.77
2023-02-15T19:18:16.999Z,346.23
2023-02-15T19:20:48.593Z,364.57
2023-02-15T19:23:22.074Z,566.20
2023-02-15T19:25:51.593Z,699.47
2023-02-15T19:28:25.065Z,521.07
2023-02-15T19:30:53.611Z,598.87
2023-02-15T19:33:23.739Z,657.80
2023-02-15T19:35:57.660Z,469.23
2023-02-15T19:38:29.656Z,571.17
2023-02-15T19:41:04.194Z,822.20
2023-02-15T19:43:32.611Z,448.07
2023-02-15T19:46:02.615Z,393.90
2023-02-15T19:48:31.541Z,312.60
2023-02-15T19:51:02.526Z,307.07
2023-02-15T19:53:31.828Z,440.40
2023-02-15T19:56:01.268Z,505.17
2023-02-15T19:58:30.276Z,320.70
2023-02-15T20:00:59.226Z,306.73
2023-02-15T20:03:29.702Z,494.07
2023-02-15T20:05:59.041Z,296.83
2023-02-15T20:08:30.837Z,199.50
2023-02-15T20:11:00.225Z,471.73
2023-02-15T20:13:31.286Z,235.70
2023-02-15T20:16:01.642Z,350.80
2023-02-15T20:18:30.416Z,234.23
2023-02-15T20:20:59.502Z,296.17
2023-02-15T20:23:32.242Z,233.30
2023-02-15T20:26:05.420Z,209.77
2023-02-15T20:28:35.038Z,236.67
2023-02-15T20:31:06.284Z,316.07
2023-02-15T20:33:37.027Z,254.73
2023-02-15T20:36:06.347Z,351.67
2023-02-15T20:38:36.884Z,328.97
2023-02-15T20:41:23.161Z,266.77
2023-02-15T20:43:52.639Z,190.50
2023-02-15T20:46:21.787Z,122.47
2023-02-15T20:48:51.824Z,229.83
2023-02-15T20:51:23.536Z,98.07
2023-02-15T20:53:53.803Z,418.63
2023-02-15T20:56:24.334Z,147.23
2023-02-15T20:58:54.023Z,184.90
2023-02-15T21:01:23.133Z,171.93
2023-02-15T21:03:52.313Z,117.67
2023-02-15T21:06:21.914Z,177.00
2023-02-15T21:08:51.477Z,157.53
2023-02-15T21:11:24.318Z,260.47
2023-02-15T21:13:53.499Z,164.53
2023-02-15T21:16:22.516Z,92.83
2023-02-15T21:18:51.408Z,342.60
2023-02-15T21:21:24.358Z,123.83
2023-02-15T21:23:53.923Z,185.20
2023-02-15T21:26:24.409Z,166.80
2023-02-15T21:28:52.873Z,125.13
2023-02-15T21:31:23.400Z,132.07
2023-02-15T21:33:52.165Z,144.10
2023-02-15T21:36:22.994Z,213.60
2023-02-15T21:38:53.672Z,264.77
2023-02-15T21:41:42.648Z,124.00
2023-02-15T21:44:34.657Z,128.83
2023-02-15T21:47:20.419Z,147.87
2023-02-15T21:49:48.768Z,479.43
2023-02-15T21:52:20.000Z,156.03
2023-02-15T21:54:48.963Z,175.40
2023-02-15T21:57:22.151Z,129.30
2023-02-15T21:59:50.634Z,151.13
2023-02-15T22:02:28.922Z,155.63
2023-02-15T22:04:57.303Z,225.43
2023-02-15T22:07:25.579Z,262.60
2023-02-15T22:09:54.348Z,296.80
2023-02-15T22:12:24.236Z,184.33
2023-02-15T22:14:54.504Z,192.47
2023-02-15T22:17:24.967Z,167.50
2023-02-15T22:19:54.079Z,163.73
2023-02-15T22:22:22.671Z,193.10
2023-02-15T22:24:51.110Z,151.03
2023-02-15T22:27:25.549Z,180.97
2023-02-15T22:29:56.197Z,342.10
2023-02-15T22:32:26.678Z,597.60
2023-02-15T22:34:55.622Z,259.53
2023-02-15T22:37:23.790Z,319.70
2023-02-15T22:39:51.968Z,270.60
2023-02-15T22:42:25.738Z,288.37
2023-02-15T22:44:57.289Z,371.47
2023-02-15T22:47:27.596Z,162.43
2023-02-15T22:49:56.297Z,298.70
2023-02-15T22:52:25.378Z,233.53
2023-02-15T22:54:53.614Z,223.63
2023-02-15T22:57:29.061Z,203.83
2023-02-15T22:59:59.422Z,170.33
2023-02-15T23:02:27.865Z,179.90
2023-02-15T23:04:56.285Z,238.77
2023-02-15T23:07:24.758Z,131.50
2023-02-15T23:09:53.098Z,168.67
2023-02-15T23:12:26.029Z,435.27
2023-02-15T23:14:55.012Z,232.57
2023-02-15T23:17:24.638Z,368.00
2023-02-15T23:19:52.827Z,355.80
2023-02-15T23:22:21.281Z,219.57
2023-02-15T23:24:53.330Z,163.27
2023-02-15T23:27:39.455Z,178.57
2023-02-15T23:30:14.075Z,221.83
2023-02-15T23:32:44.016Z,234.07
2023-02-15T23:35:16.332Z,212.37
2023-02-15T23:37:45.108Z,346.63
2023-02-15T23:40:34.022Z,264.77
2023-02-15T23:43:02.671Z,195.13
2023-02-15T23:45:34.694Z,214.57
2023-02-15T23:48:22.434Z,392.33
2023-02-15T23:50:51.020Z,264.03
2023-02-15T23:53:19.718Z,148.87
2023-02-15T23:55:48.600Z,178.07
2023-02-15T23:58:20.183Z,215.77
